sensor_id;sensor_type;location;lat;lon;timestamp;pressure;altitude;pressure_sealevel;temperature;humidity
12203;BME280;6164;42.178;24.622;2024-01-25T00:00:35;100046.91;;;2.99;100.00
12203;BME280;6164;42.178;24.622;2024-01-25T00:03:03;100044.00;;;2.91;100.00
12203;BME280;6164;42.178;24.622;2024-01-25T00:05:33;100017.88;;;3.03;100.00
12203;BME280;6164;42.178;24.622;2024-01-25T00:07:59;100015.38;;;3.02;100.00
12203;BME280;6164;42.178;24.622;2024-01-25T00:10:26;100014.34;;;3.04;100.00
12203;BME280;6164;42.178;24.622;2024-01-25T00:12:52;100036.44;;;3.11;100.00
12203;BME280;6164;42.178;24.622;2024-01-25T00:15:19;100042.41;;;3.01;100.00
12203;BME280;6164;42.178;24.622;2024-01-25T00:17:46;100049.19;;;3.03;100.00
12203;BME280;6164;42.178;24.622;2024-01-25T00:20:14;100028.22;;;3.05;100.00
12203;BME280;6164;42.178;24.622;2024-01-25T00:22:40;100009.59;;;2.98;100.00
12203;BME280;6164;42.178;24.622;2024-01-25T00:25:07;100012.09;;;2.87;100.00
12203;BME280;6164;42.178;24.622;2024-01-25T00:27:34;100022.53;;;2.87;100.00
12203;BME280;6164;42.178;24.622;2024-01-25T00:30:01;100021.53;;;2.77;100.00
12203;BME280;6164;42.178;24.622;2024-01-25T00:32:29;100026.16;;;2.61;100.00
12203;BME280;6164;42.178;24.622;2024-01-25T00:34:55;100024.91;;;2.54;100.00
12203;BME280;6164;42.178;24.622;2024-01-25T00:37:24;100022.94;;;2.57;100.00
12203;BME280;6164;42.178;24.622;2024-01-25T00:39:51;100005.63;;;2.56;100.00
12203;BME280;6164;42.178;24.622;2024-01-25T00:42:17;100010.06;;;2.67;100.00
12203;BME280;6164;42.178;24.622;2024-01-25T00:44:47;100002.84;;;2.83;100.00
12203;BME280;6164;42.178;24.622;2024-01-25T00:47:14;100007.50;;;2.91;100.00
12203;BME280;6164;42.178;24.622;2024-01-25T00:49:41;99998.53;;;2.95;100.00
12203;BME280;6164;42.178;24.622;2024-01-25T00:52:08;99996.19;;;3.03;100.00
12203;BME280;6164;42.178;24.622;2024-01-25T00:54:36;100000.84;;;3.10;100.00
12203;BME280;6164;42.178;24.622;2024-01-25T00:57:03;100004.81;;;3.16;100.00
12203;BME280;6164;42.178;24.622;2024-01-25T00:59:30;100005.53;;;3.18;100.00
12203;BME280;6164;42.178;24.622;2024-01-25T01:01:57;99983.59;;;3.20;100.00
12203;BME280;6164;42.178;24.622;2024-01-25T01:04:25;99970.56;;;3.31;100.00
12203;BME280;6164;42.178;24.622;2024-01-25T01:06:52;99960.44;;;3.39;100.00
12203;BME280;6164;42.178;24.622;2024-01-25T01:09:18;99948.78;;;3.43;100.00
12203;BME280;6164;42.178;24.622;2024-01-25T01:11:46;99937.38;;;3.33;100.00
12203;BME280;6164;42.178;24.622;2024-01-25T01:14:15;99936.66;;;3.31;100.00
12203;BME280;6164;42.178;24.622;2024-01-25T01:16:42;99931.94;;;3.36;100.00
12203;BME280;6164;42.178;24.622;2024-01-25T01:19:08;99931.97;;;3.47;100.00
12203;BME280;6164;42.178;24.622;2024-01-25T01:21:35;99924.28;;;3.57;100.00
12203;BME280;6164;42.178;24.622;2024-01-25T01:24:02;99929.03;;;3.63;100.00
12203;BME280;6164;42.178;24.622;2024-01-25T01:26:28;99929.25;;;3.71;100.00
12203;BME280;6164;42.178;24.622;2024-01-25T01:28:56;99931.44;;;3.77;100.00
12203;BME280;6164;42.178;24.622;2024-01-25T01:31:23;99934.53;;;3.82;100.00
12203;BME280;6164;42.178;24.622;2024-01-25T01:33:49;99932.75;;;3.93;100.00
12203;BME280;6164;42.178;24.622;2024-01-25T01:36:16;99926.69;;;4.04;100.00
12203;BME280;6164;42.178;24.622;2024-01-25T01:38:43;99914.34;;;4.06;100.00
12203;BME280;6164;42.178;24.622;2024-01-25T01:41:09;99920.16;;;4.10;100.00
12203;BME280;6164;42.178;24.622;2024-01-25T01:43:38;99911.00;;;4.04;100.00
12203;BME280;6164;42.178;24.622;2024-01-25T01:46:06;99913.03;;;4.00;100.00
12203;BME280;6164;42.178;24.622;2024-01-25T01:48:36;99917.53;;;3.87;100.00
12203;BME280;6164;42.178;24.622;2024-01-25T01:51:02;99914.00;;;3.88;100.00
12203;BME280;6164;42.178;24.622;2024-01-25T01:53:29;99907.56;;;3.81;100.00
12203;BME280;6164;42.178;24.622;2024-01-25T01:55:56;99901.06;;;3.87;100.00
12203;BME280;6164;42.178;24.622;2024-01-25T01:58:23;99893.31;;;3.74;100.00
12203;BME280;6164;42.178;24.622;2024-01-25T02:00:50;99895.94;;;3.74;100.00
12203;BME280;6164;42.178;24.622;2024-01-25T02:03:18;99894.63;;;3.69;100.00
12203;BME280;6164;42.178;24.622;2024-01-25T02:05:45;99899.13;;;3.78;100.00
12203;BME280;6164;42.178;24.622;2024-01-25T02:08:11;99896.75;;;3.75;100.00
12203;BME280;6164;42.178;24.622;2024-01-25T02:10:38;99899.84;;;3.80;100.00
12203;BME280;6164;42.178;24.622;2024-01-25T02:13:05;99905.91;;;3.91;100.00
12203;BME280;6164;42.178;24.622;2024-01-25T02:15:31;99904.03;;;3.93;100.00
12203;BME280;6164;42.178;24.622;2024-01-25T02:17:58;99903.41;;;4.01;100.00
12203;BME280;6164;42.178;24.622;2024-01-25T02:20:26;99899.03;;;4.01;100.00
12203;BME280;6164;42.178;24.622;2024-01-25T02:22:54;99891.44;;;3.98;100.00
12203;BME280;6164;42.178;24.622;2024-01-25T02:25:21;99889.63;;;3.99;100.00
12203;BME280;6164;42.178;24.622;2024-01-25T02:27:47;99877.41;;;3.99;100.00
12203;BME280;6164;42.178;24.622;2024-01-25T02:30:14;99872.19;;;3.99;100.00
12203;BME280;6164;42.178;24.622;2024-01-25T02:32:42;99866.72;;;4.02;100.00
12203;BME280;6164;42.178;24.622;2024-01-25T02:35:09;99862.47;;;4.01;100.00
12203;BME280;6164;42.178;24.622;2024-01-25T02:37:35;99866.34;;;4.18;100.00
12203;BME280;6164;42.178;24.622;2024-01-25T02:40:04;99854.91;;;4.41;100.00
12203;BME280;6164;42.178;24.622;2024-01-25T02:42:30;99857.38;;;4.43;100.00
12203;BME280;6164;42.178;24.622;2024-01-25T02:44:57;99846.59;;;4.36;100.00
12203;BME280;6164;42.178;24.622;2024-01-25T02:47:24;99845.97;;;4.44;100.00
12203;BME280;6164;42.178;24.622;2024-01-25T02:49:50;99837.19;;;4.45;100.00
12203;BME280;6164;42.178;24.622;2024-01-25T02:52:17;99840.03;;;4.42;100.00
12203;BME280;6164;42.178;24.622;2024-01-25T02:54:44;99826.94;;;4.53;100.00
12203;BME280;6164;42.178;24.622;2024-01-25T02:57:12;99820.00;;;4.63;100.00
12203;BME280;6164;42.178;24.622;2024-01-25T02:59:38;99821.19;;;4.59;100.00
12203;BME280;6164;42.178;24.622;2024-01-25T03:02:05;99802.81;;;4.81;100.00
12203;BME280;6164;42.178;24.622;2024-01-25T03:04:32;99792.66;;;5.08;100.00
12203;BME280;6164;42.178;24.622;2024-01-25T03:06:58;99788.66;;;5.34;100.00
12203;BME280;6164;42.178;24.622;2024-01-25T03:09:25;99791.97;;;5.66;100.00
12203;BME280;6164;42.178;24.622;2024-01-25T03:11:52;99785.91;;;5.66;100.00
12203;BME280;6164;42.178;24.622;2024-01-25T03:14:20;99795.72;;;5.73;100.00
12203;BME280;6164;42.178;24.622;2024-01-25T03:16:47;99814.31;;;5.70;100.00
12203;BME280;6164;42.178;24.622;2024-01-25T03:19:14;99800.00;;;5.74;100.00
12203;BME280;6164;42.178;24.622;2024-01-25T03:21:40;99807.16;;;5.72;100.00
12203;BME280;6164;42.178;24.622;2024-01-25T03:24:07;99819.38;;;5.92;100.00
12203;BME280;6164;42.178;24.622;2024-01-25T03:26:33;99817.91;;;5.99;100.00
12203;BME280;6164;42.178;24.622;2024-01-25T03:29:00;99807.94;;;5.93;100.00
12203;BME280;6164;42.178;24.622;2024-01-25T03:31:28;99818.28;;;5.95;100.00
12203;BME280;6164;42.178;24.622;2024-01-25T03:33:55;99808.63;;;5.95;100.00
12203;BME280;6164;42.178;24.622;2024-01-25T03:36:21;99823.16;;;6.09;100.00
12203;BME280;6164;42.178;24.622;2024-01-25T03:38:48;99812.75;;;6.47;100.00
12203;BME280;6164;42.178;24.622;2024-01-25T03:41:15;99807.06;;;6.90;100.00
12203;BME280;6164;42.178;24.622;2024-01-25T03:43:41;99806.75;;;7.12;100.00
12203;BME280;6164;42.178;24.622;2024-01-25T03:46:10;99812.47;;;7.44;100.00
12203;BME280;6164;42.178;24.622;2024-01-25T03:48:38;99815.72;;;7.65;100.00
12203;BME280;6164;42.178;24.622;2024-01-25T03:51:04;99802.69;;;7.73;100.00
12203;BME280;6164;42.178;24.622;2024-01-25T03:53:31;99820.16;;;7.91;100.00
12203;BME280;6164;42.178;24.622;2024-01-25T03:55:58;99818.19;;;8.30;100.00
12203;BME280;6164;42.178;24.622;2024-01-25T03:58:24;99839.66;;;8.26;100.00
12203;BME280;6164;42.178;24.622;2024-01-25T04:00:51;99839.09;;;8.32;100.00
12203;BME280;6164;42.178;24.622;2024-01-25T04:03:18;99842.25;;;8.35;100.00
12203;BME280;6164;42.178;24.622;2024-01-25T04:05:46;99852.13;;;8.86;100.00
12203;BME280;6164;42.178;24.622;2024-01-25T04:08:13;99826.59;;;8.86;100.00
12203;BME280;6164;42.178;24.622;2024-01-25T04:10:39;99817.47;;;8.73;100.00
12203;BME280;6164;42.178;24.622;2024-01-25T04:13:06;99812.47;;;8.70;100.00
12203;BME280;6164;42.178;24.622;2024-01-25T04:15:32;99797.06;;;8.57;100.00
12203;BME280;6164;42.178;24.622;2024-01-25T04:17:59;99793.06;;;8.36;100.00
12203;BME280;6164;42.178;24.622;2024-01-25T04:20:26;99798.88;;;8.39;100.00
12203;BME280;6164;42.178;24.622;2024-01-25T04:22:54;99790.38;;;8.28;100.00
12203;BME280;6164;42.178;24.622;2024-01-25T04:25:20;99806.03;;;8.20;100.00
12203;BME280;6164;42.178;24.622;2024-01-25T04:27:47;99807.53;;;8.22;100.00
12203;BME280;6164;42.178;24.622;2024-01-25T04:30:14;99827.03;;;8.29;100.00
12203;BME280;6164;42.178;24.622;2024-01-25T04:32:40;99824.03;;;8.24;100.00
12203;BME280;6164;42.178;24.622;2024-01-25T04:35:07;99810.78;;;8.43;100.00
12203;BME280;6164;42.178;24.622;2024-01-25T04:37:34;99791.16;;;8.73;100.00
12203;BME280;6164;42.178;24.622;2024-01-25T04:40:02;99807.13;;;8.62;100.00
12203;BME280;6164;42.178;24.622;2024-01-25T04:42:30;99808.56;;;8.39;100.00
12203;BME280;6164;42.178;24.622;2024-01-25T04:44:56;99804.81;;;8.24;100.00
12203;BME280;6164;42.178;24.622;2024-01-25T04:47:23;99802.28;;;8.22;100.00
12203;BME280;6164;42.178;24.622;2024-01-25T04:49:50;99810.00;;;8.06;100.00
12203;BME280;6164;42.178;24.622;2024-01-25T04:52:16;99807.22;;;8.07;100.00
12203;BME280;6164;42.178;24.622;2024-01-25T04:54:43;99813.59;;;8.05;100.00
12203;BME280;6164;42.178;24.622;2024-01-25T04:57:14;99821.41;;;8.24;100.00
12203;BME280;6164;42.178;24.622;2024-01-25T04:59:41;99812.84;;;8.13;100.00
12203;BME280;6164;42.178;24.622;2024-01-25T05:02:07;99813.13;;;7.92;100.00
12203;BME280;6164;42.178;24.622;2024-01-25T05:04:34;99805.66;;;7.87;100.00
12203;BME280;6164;42.178;24.622;2024-01-25T05:07:01;99807.47;;;7.87;100.00
12203;BME280;6164;42.178;24.622;2024-01-25T05:09:27;99827.97;;;7.83;100.00
12203;BME280;6164;42.178;24.622;2024-01-25T05:11:54;99838.78;;;7.80;100.00
12203;BME280;6164;42.178;24.622;2024-01-25T05:14:25;99830.09;;;7.70;100.00
12203;BME280;6164;42.178;24.622;2024-01-25T05:16:51;99816.94;;;7.70;100.00
12203;BME280;6164;42.178;24.622;2024-01-25T05:19:18;99789.84;;;7.70;100.00
12203;BME280;6164;42.178;24.622;2024-01-25T05:21:45;99775.06;;;7.69;100.00
12203;BME280;6164;42.178;24.622;2024-01-25T05:24:11;99793.84;;;7.74;100.00
12203;BME280;6164;42.178;24.622;2024-01-25T05:26:38;99818.69;;;7.79;100.00
12203;BME280;6164;42.178;24.622;2024-01-25T05:29:05;99830.16;;;7.88;100.00
12203;BME280;6164;42.178;24.622;2024-01-25T05:31:33;99808.97;;;7.89;100.00
12203;BME280;6164;42.178;24.622;2024-01-25T05:33:59;99827.81;;;7.85;100.00
12203;BME280;6164;42.178;24.622;2024-01-25T05:36:26;99850.88;;;7.91;100.00
12203;BME280;6164;42.178;24.622;2024-01-25T05:38:52;99848.88;;;8.02;100.00
12203;BME280;6164;42.178;24.622;2024-01-25T05:41:19;99858.69;;;8.10;100.00
12203;BME280;6164;42.178;24.622;2024-01-25T05:43:46;99861.84;;;8.23;100.00
12203;BME280;6164;42.178;24.622;2024-01-25T05:46:12;99866.34;;;8.31;100.00
12203;BME280;6164;42.178;24.622;2024-01-25T05:48:40;99873.44;;;8.30;100.00
12203;BME280;6164;42.178;24.622;2024-01-25T05:51:07;99877.16;;;8.28;100.00
12203;BME280;6164;42.178;24.622;2024-01-25T05:53:33;99870.94;;;8.19;100.00
12203;BME280;6164;42.178;24.622;2024-01-25T05:56:00;99872.22;;;8.15;100.00
12203;BME280;6164;42.178;24.622;2024-01-25T05:58:29;99887.38;;;8.03;100.00
12203;BME280;6164;42.178;24.622;2024-01-25T06:00:55;99888.50;;;7.91;100.00
12203;BME280;6164;42.178;24.622;2024-01-25T06:03:22;99908.88;;;7.80;100.00
12203;BME280;6164;42.178;24.622;2024-01-25T06:05:50;99906.84;;;7.74;100.00
12203;BME280;6164;42.178;24.622;2024-01-25T06:08:16;99909.88;;;7.79;100.00
12203;BME280;6164;42.178;24.622;2024-01-25T06:10:43;99919.88;;;8.02;100.00
12203;BME280;6164;42.178;24.622;2024-01-25T06:13:09;99915.69;;;8.10;100.00
12203;BME280;6164;42.178;24.622;2024-01-25T06:15:36;99920.09;;;8.19;100.00
12203;BME280;6164;42.178;24.622;2024-01-25T06:18:04;99921.59;;;8.21;100.00
12203;BME280;6164;42.178;24.622;2024-01-25T06:20:30;99926.28;;;8.37;100.00
12203;BME280;6164;42.178;24.622;2024-01-25T06:22:59;99931.03;;;8.51;100.00
12203;BME280;6164;42.178;24.622;2024-01-25T06:25:25;99918.50;;;8.62;100.00
12203;BME280;6164;42.178;24.622;2024-01-25T06:27:55;99912.16;;;8.82;100.00
12203;BME280;6164;42.178;24.622;2024-01-25T06:30:23;99920.34;;;8.79;100.00
12203;BME280;6164;42.178;24.622;2024-01-25T06:32:50;99933.28;;;8.90;100.00
12203;BME280;6164;42.178;24.622;2024-01-25T06:35:16;99914.94;;;8.98;100.00
12203;BME280;6164;42.178;24.622;2024-01-25T06:37:43;99908.63;;;9.09;100.00
12203;BME280;6164;42.178;24.622;2024-01-25T06:40:11;99929.22;;;9.13;100.00
12203;BME280;6164;42.178;24.622;2024-01-25T06:42:38;99938.72;;;9.24;100.00
12203;BME280;6164;42.178;24.622;2024-01-25T06:45:04;99965.72;;;9.26;100.00
12203;BME280;6164;42.178;24.622;2024-01-25T06:47:31;99953.91;;;9.30;100.00
12203;BME280;6164;42.178;24.622;2024-01-25T06:49:58;99930.13;;;9.22;100.00
12203;BME280;6164;42.178;24.622;2024-01-25T06:52:24;99916.44;;;9.18;100.00
12203;BME280;6164;42.178;24.622;2024-01-25T06:54:51;99935.41;;;9.22;100.00
12203;BME280;6164;42.178;24.622;2024-01-25T06:57:19;99929.22;;;9.13;100.00
12203;BME280;6164;42.178;24.622;2024-01-25T06:59:45;99937.75;;;9.07;100.00
12203;BME280;6164;42.178;24.622;2024-01-25T07:02:13;99931.63;;;9.07;100.00
12203;BME280;6164;42.178;24.622;2024-01-25T07:04:39;99947.66;;;9.13;100.00
12203;BME280;6164;42.178;24.622;2024-01-25T07:07:06;99943.50;;;9.11;100.00
12203;BME280;6164;42.178;24.622;2024-01-25T07:09:33;99953.78;;;9.14;100.00
12203;BME280;6164;42.178;24.622;2024-01-25T07:11:59;99941.72;;;9.11;100.00
12203;BME280;6164;42.178;24.622;2024-01-25T07:14:27;99947.88;;;9.20;100.00
12203;BME280;6164;42.178;24.622;2024-01-25T07:16:52;99930.06;;;9.14;100.00
12203;BME280;6164;42.178;24.622;2024-01-25T07:19:19;99944.88;;;9.15;100.00
12203;BME280;6164;42.178;24.622;2024-01-25T07:21:46;99940.28;;;9.17;100.00
12203;BME280;6164;42.178;24.622;2024-01-25T07:24:12;99960.91;;;9.21;100.00
12203;BME280;6164;42.178;24.622;2024-01-25T07:26:39;99950.59;;;9.28;100.00
12203;BME280;6164;42.178;24.622;2024-01-25T07:29:06;99941.41;;;9.32;100.00
12203;BME280;6164;42.178;24.622;2024-01-25T07:31:33;99956.25;;;9.33;100.00
12203;BME280;6164;42.178;24.622;2024-01-25T07:34:00;99946.06;;;9.38;100.00
12203;BME280;6164;42.178;24.622;2024-01-25T07:36:27;99940.19;;;9.44;100.00
12203;BME280;6164;42.178;24.622;2024-01-25T07:38:54;99954.25;;;9.53;100.00
12203;BME280;6164;42.178;24.622;2024-01-25T07:41:21;99952.38;;;9.63;100.00
12203;BME280;6164;42.178;24.622;2024-01-25T07:43:48;99958.00;;;9.68;100.00
12203;BME280;6164;42.178;24.622;2024-01-25T07:46:15;99963.97;;;9.70;100.00
12203;BME280;6164;42.178;24.622;2024-01-25T07:48:42;99942.88;;;9.70;100.00
12203;BME280;6164;42.178;24.622;2024-01-25T07:51:12;99957.53;;;9.72;100.00
12203;BME280;6164;42.178;24.622;2024-01-25T07:53:39;99959.81;;;9.67;100.00
12203;BME280;6164;42.178;24.622;2024-01-25T07:56:06;99960.28;;;9.63;100.00
12203;BME280;6164;42.178;24.622;2024-01-25T07:58:32;99967.38;;;9.45;100.00
12203;BME280;6164;42.178;24.622;2024-01-25T08:00:59;99961.41;;;9.43;100.00
12203;BME280;6164;42.178;24.622;2024-01-25T08:03:29;99966.25;;;9.47;100.00
12203;BME280;6164;42.178;24.622;2024-01-25T08:05:57;99968.53;;;9.42;100.00
12203;BME280;6164;42.178;24.622;2024-01-25T08:08:23;99961.25;;;9.44;100.00
12203;BME280;6164;42.178;24.622;2024-01-25T08:10:50;99963.91;;;9.62;100.00
12203;BME280;6164;42.178;24.622;2024-01-25T08:13:16;99954.50;;;9.85;100.00
12203;BME280;6164;42.178;24.622;2024-01-25T08:15:43;99956.69;;;9.89;100.00
12203;BME280;6164;42.178;24.622;2024-01-25T08:18:10;99958.16;;;10.09;100.00
12203;BME280;6164;42.178;24.622;2024-01-25T08:20:36;99951.50;;;10.31;100.00
12203;BME280;6164;42.178;24.622;2024-01-25T08:23:04;99959.50;;;10.47;100.00
12203;BME280;6164;42.178;24.622;2024-01-25T08:25:33;99956.38;;;10.51;100.00
12203;BME280;6164;42.178;24.622;2024-01-25T08:28:00;99938.72;;;10.52;100.00
12203;BME280;6164;42.178;24.622;2024-01-25T08:30:26;99956.56;;;10.58;100.00
12203;BME280;6164;42.178;24.622;2024-01-25T08:32:53;99963.34;;;10.60;100.00
12203;BME280;6164;42.178;24.622;2024-01-25T08:35:20;99950.00;;;10.62;100.00
12203;BME280;6164;42.178;24.622;2024-01-25T08:37:46;99947.19;;;10.63;100.00
12203;BME280;6164;42.178;24.622;2024-01-25T08:40:14;99949.16;;;10.70;100.00
12203;BME280;6164;42.178;24.622;2024-01-25T08:42:41;99954.28;;;10.71;100.00
12203;BME280;6164;42.178;24.622;2024-01-25T08:45:07;99951.00;;;10.69;100.00
12203;BME280;6164;42.178;24.622;2024-01-25T08:47:34;99943.53;;;10.64;100.00
12203;BME280;6164;42.178;24.622;2024-01-25T08:50:01;99940.41;;;10.61;100.00
12203;BME280;6164;42.178;24.622;2024-01-25T08:52:28;99949.00;;;10.63;100.00
12203;BME280;6164;42.178;24.622;2024-01-25T08:54:55;99943.38;;;10.66;100.00
12203;BME280;6164;42.178;24.622;2024-01-25T08:57:23;99945.75;;;10.77;100.00
12203;BME280;6164;42.178;24.622;2024-01-25T08:59:49;99953.03;;;10.83;100.00
12203;BME280;6164;42.178;24.622;2024-01-25T09:02:16;99986.88;;;10.88;99.32
12203;BME280;6164;42.178;24.622;2024-01-25T09:04:44;99952.38;;;10.89;100.00
12203;BME280;6164;42.178;24.622;2024-01-25T09:07:10;99948.75;;;10.90;100.00
12203;BME280;6164;42.178;24.622;2024-01-25T09:09:37;99946.91;;;10.91;100.00
12203;BME280;6164;42.178;24.622;2024-01-25T09:12:04;99962.31;;;10.95;100.00
12203;BME280;6164;42.178;24.622;2024-01-25T09:14:34;99957.34;;;11.00;100.00
12203;BME280;6164;42.178;24.622;2024-01-25T09:17:01;99969.06;;;10.98;100.00
12203;BME280;6164;42.178;24.622;2024-01-25T09:19:28;99959.00;;;10.93;98.21
12203;BME280;6164;42.178;24.622;2024-01-25T09:21:55;99962.13;;;10.97;96.38
12203;BME280;6164;42.178;24.622;2024-01-25T09:24:23;99940.16;;;10.96;97.88
12203;BME280;6164;42.178;24.622;2024-01-25T09:26:50;99934.53;;;10.91;99.26
12203;BME280;6164;42.178;24.622;2024-01-25T09:29:16;99938.84;;;10.92;96.88
12203;BME280;6164;42.178;24.622;2024-01-25T09:31:44;99946.28;;;10.89;96.43
12203;BME280;6164;42.178;24.622;2024-01-25T09:34:11;99937.19;;;10.91;96.33
12203;BME280;6164;42.178;24.622;2024-01-25T09:36:37;99935.53;;;10.90;93.41
12203;BME280;6164;42.178;24.622;2024-01-25T09:39:04;99927.28;;;10.93;93.08
12203;BME280;6164;42.178;24.622;2024-01-25T09:41:30;99921.34;;;10.91;97.03
12203;BME280;6164;42.178;24.622;2024-01-25T09:43:57;99930.25;;;10.90;92.71
12203;BME280;6164;42.178;24.622;2024-01-25T09:46:24;99916.38;;;10.88;93.24
12203;BME280;6164;42.178;24.622;2024-01-25T09:48:52;99917.53;;;10.86;96.15
12203;BME280;6164;42.178;24.622;2024-01-25T09:51:18;99931.06;;;10.83;94.95
12203;BME280;6164;42.178;24.622;2024-01-25T09:53:45;99935.69;;;10.81;96.37
12203;BME280;6164;42.178;24.622;2024-01-25T09:56:14;99928.56;;;10.81;96.87
12203;BME280;6164;42.178;24.622;2024-01-25T09:58:44;99988.84;;;10.86;93.94
12203;BME280;6164;42.178;24.622;2024-01-25T10:01:12;99943.81;;;10.87;94.45
12203;BME280;6164;42.178;24.622;2024-01-25T10:03:39;99977.81;;;10.90;91.93
12203;BME280;6164;42.178;24.622;2024-01-25T10:06:07;99953.19;;;10.90;92.02
12203;BME280;6164;42.178;24.622;2024-01-25T10:08:34;99959.66;;;10.87;93.61
12203;BME280;6164;42.178;24.622;2024-01-25T10:11:00;99942.13;;;10.94;91.87
12203;BME280;6164;42.178;24.622;2024-01-25T10:13:27;99954.72;;;11.00;91.83
12203;BME280;6164;42.178;24.622;2024-01-25T10:15:54;99942.50;;;11.07;89.89
12203;BME280;6164;42.178;24.622;2024-01-25T10:18:21;99951.59;;;11.13;89.89
12203;BME280;6164;42.178;24.622;2024-01-25T10:20:48;99927.47;;;11.16;90.54
12203;BME280;6164;42.178;24.622;2024-01-25T10:23:16;99938.72;;;11.10;86.53
12203;BME280;6164;42.178;24.622;2024-01-25T10:25:42;99922.69;;;11.11;89.42
12203;BME280;6164;42.178;24.622;2024-01-25T10:28:09;99914.78;;;11.11;90.04
12203;BME280;6164;42.178;24.622;2024-01-25T10:30:36;99930.63;;;11.11;86.73
12203;BME280;6164;42.178;24.622;2024-01-25T10:33:03;99937.38;;;11.14;86.55
12203;BME280;6164;42.178;24.622;2024-01-25T10:35:30;99925.84;;;11.15;84.70
12203;BME280;6164;42.178;24.622;2024-01-25T10:37:57;99929.63;;;11.12;83.63
12203;BME280;6164;42.178;24.622;2024-01-25T10:40:26;99949.44;;;11.08;81.17
12203;BME280;6164;42.178;24.622;2024-01-25T10:42:53;99934.09;;;11.12;81.05
12203;BME280;6164;42.178;24.622;2024-01-25T10:45:19;99943.66;;;11.13;79.08
12203;BME280;6164;42.178;24.622;2024-01-25T10:47:47;99919.72;;;11.14;83.02
12203;BME280;6164;42.178;24.622;2024-01-25T10:50:14;99920.06;;;11.11;82.62
12203;BME280;6164;42.178;24.622;2024-01-25T10:52:41;99922.53;;;11.13;81.27
12203;BME280;6164;42.178;24.622;2024-01-25T10:55:08;99890.81;;;11.13;82.85
12203;BME280;6164;42.178;24.622;2024-01-25T10:57:37;99909.66;;;11.18;80.96
12203;BME280;6164;42.178;24.622;2024-01-25T11:00:05;99886.03;;;11.16;83.35
12203;BME280;6164;42.178;24.622;2024-01-25T11:02:34;99889.50;;;11.17;82.24
12203;BME280;6164;42.178;24.622;2024-01-25T11:05:00;99888.34;;;11.19;83.14
12203;BME280;6164;42.178;24.622;2024-01-25T11:07:28;99894.97;;;11.23;81.49
12203;BME280;6164;42.178;24.622;2024-01-25T11:09:55;99897.59;;;11.23;80.10
12203;BME280;6164;42.178;24.622;2024-01-25T11:12:22;99885.88;;;11.18;81.89
12203;BME280;6164;42.178;24.622;2024-01-25T11:14:54;99877.09;;;11.17;82.55
12203;BME280;6164;42.178;24.622;2024-01-25T11:17:21;99864.91;;;11.08;81.63
12203;BME280;6164;42.178;24.622;2024-01-25T11:19:48;99858.63;;;11.09;81.78
12203;BME280;6164;42.178;24.622;2024-01-25T11:22:16;99862.09;;;11.10;79.38
12203;BME280;6164;42.178;24.622;2024-01-25T11:24:42;99894.78;;;11.09;78.56
12203;BME280;6164;42.178;24.622;2024-01-25T11:27:10;99886.22;;;11.07;78.70
12203;BME280;6164;42.178;24.622;2024-01-25T11:29:38;99850.53;;;11.03;82.07
12203;BME280;6164;42.178;24.622;2024-01-25T11:32:06;99846.41;;;11.00;83.29
12203;BME280;6164;42.178;24.622;2024-01-25T11:34:33;99854.81;;;10.96;84.04
12203;BME280;6164;42.178;24.622;2024-01-25T11:36:59;99858.44;;;10.95;83.40
12203;BME280;6164;42.178;24.622;2024-01-25T11:39:26;99846.88;;;10.96;87.16
12203;BME280;6164;42.178;24.622;2024-01-25T11:41:53;99859.28;;;11.03;85.02
12203;BME280;6164;42.178;24.622;2024-01-25T11:44:20;99864.56;;;11.11;85.79
12203;BME280;6164;42.178;24.622;2024-01-25T11:46:49;99845.06;;;11.20;86.17
12203;BME280;6164;42.178;24.622;2024-01-25T11:49:17;99832.84;;;11.19;89.70
12203;BME280;6164;42.178;24.622;2024-01-25T11:51:44;99842.59;;;11.35;85.99
12203;BME280;6164;42.178;24.622;2024-01-25T11:54:10;99848.22;;;11.40;84.73
12203;BME280;6164;42.178;24.622;2024-01-25T11:56:37;99846.38;;;11.40;86.86
12203;BME280;6164;42.178;24.622;2024-01-25T11:59:05;99857.59;;;11.50;83.13
12203;BME280;6164;42.178;24.622;2024-01-25T12:01:32;99848.19;;;11.56;84.43
12203;BME280;6164;42.178;24.622;2024-01-25T12:03:58;99852.47;;;11.65;80.89
12203;BME280;6164;42.178;24.622;2024-01-25T12:06:28;99858.75;;;11.64;78.17
12203;BME280;6164;42.178;24.622;2024-01-25T12:08:54;99865.69;;;11.65;76.84
12203;BME280;6164;42.178;24.622;2024-01-25T12:11:21;99858.06;;;11.62;77.90
12203;BME280;6164;42.178;24.622;2024-01-25T12:13:49;99853.47;;;11.64;81.78
12203;BME280;6164;42.178;24.622;2024-01-25T12:16:15;99856.78;;;11.58;77.94
12203;BME280;6164;42.178;24.622;2024-01-25T12:18:43;99864.69;;;11.50;78.92
12203;BME280;6164;42.178;24.622;2024-01-25T12:21:09;99869.81;;;11.43;77.26
12203;BME280;6164;42.178;24.622;2024-01-25T12:23:38;99857.94;;;11.39;79.53
12203;BME280;6164;42.178;24.622;2024-01-25T12:26:05;99873.31;;;11.36;78.32
12203;BME280;6164;42.178;24.622;2024-01-25T12:28:32;99862.91;;;11.34;78.33
12203;BME280;6164;42.178;24.622;2024-01-25T12:30:59;99855.78;;;11.27;80.18
12203;BME280;6164;42.178;24.622;2024-01-25T12:33:26;99859.94;;;11.29;79.92
12203;BME280;6164;42.178;24.622;2024-01-25T12:35:52;99828.56;;;11.26;82.57
12203;BME280;6164;42.178;24.622;2024-01-25T12:38:20;99846.88;;;11.28;78.05
12203;BME280;6164;42.178;24.622;2024-01-25T12:40:48;99836.81;;;11.23;80.05
12203;BME280;6164;42.178;24.622;2024-01-25T12:43:15;99864.72;;;11.26;77.50
12203;BME280;6164;42.178;24.622;2024-01-25T12:45:42;99861.59;;;11.22;77.96
12203;BME280;6164;42.178;24.622;2024-01-25T12:48:09;99847.69;;;11.20;77.67
12203;BME280;6164;42.178;24.622;2024-01-25T12:50:36;99845.91;;;11.21;78.96
12203;BME280;6164;42.178;24.622;2024-01-25T12:53:02;99847.88;;;11.27;77.24
12203;BME280;6164;42.178;24.622;2024-01-25T12:55:29;99834.50;;;11.20;76.83